createdAt,value
2022-08-17T00:01:51.839Z,22.90
2022-08-17T00:04:30.715Z,22.47
2022-08-17T00:07:04.707Z,22.34
2022-08-17T00:09:36.791Z,22.33
2022-08-17T00:12:40.631Z,22.57
2022-08-17T00:15:08.302Z,22.53
2022-08-17T00:17:48.829Z,22.44
2022-08-17T00:20:33.557Z,22.52
2022-08-17T00:23:21.609Z,22.53
2022-08-17T00:25:55.539Z,22.56
2022-08-17T00:28:37.206Z,22.51
2022-08-17T00:31:14.393Z,22.71
2022-08-17T00:33:47.583Z,22.52
2022-08-17T00:36:30.604Z,22.35
2022-08-17T00:39:05.129Z,22.44
2022-08-17T00:41:42.894Z,22.35
2022-08-17T00:44:12.742Z,22.29
2022-08-17T00:46:48.656Z,22.69
2022-08-17T00:49:27.315Z,22.66
2022-08-17T00:52:13.511Z,22.49
2022-08-17T00:54:53.117Z,22.40
2022-08-17T00:57:55.508Z,22.41
2022-08-17T01:00:40.117Z,22.26
2022-08-17T01:03:26.079Z,22.04
2022-08-17T01:06:04.188Z,21.89
2022-08-17T01:08:37.986Z,22.09
2022-08-17T01:11:13.744Z,22.09
2022-08-17T01:13:48.163Z,21.73
2022-08-17T01:16:34.871Z,21.67
2022-08-17T01:19:23.513Z,21.70
2022-08-17T01:22:24.060Z,21.68
2022-08-17T01:25:04.932Z,21.72
2022-08-17T01:27:38.225Z,21.78
2022-08-17T01:30:56.716Z,21.82
2022-08-17T01:33:06.196Z,21.93
2022-08-17T01:35:40.126Z,22.01
2022-08-17T01:38:10.036Z,22.11
2022-08-17T01:40:57.559Z,22.02
2022-08-17T01:43:52.547Z,21.82
2022-08-17T01:48:58.540Z,21.35
2022-08-17T01:51:37.980Z,21.60
2022-08-17T01:54:17.826Z,21.30
2022-08-17T01:56:54.602Z,21.25
2022-08-17T01:59:39.568Z,21.25
2022-08-17T02:02:30.356Z,21.54
2022-08-17T02:05:04.736Z,21.61
2022-08-17T02:07:59.955Z,21.54
2022-08-17T02:10:36.164Z,21.52
2022-08-17T02:13:20.213Z,21.39
2022-08-17T02:15:58.314Z,21.56
2022-08-17T02:18:29.433Z,21.46
2022-08-17T02:21:09.379Z,21.39
2022-08-17T02:23:49.124Z,21.27
2022-08-17T02:26:24.081Z,21.25
2022-08-17T02:28:57.487Z,21.31
2022-08-17T02:31:33.850Z,21.33
2022-08-17T02:34:05.347Z,21.44
2022-08-17T02:36:38.766Z,21.40
2022-08-17T02:39:13.022Z,21.20
2022-08-17T02:41:45.704Z,21.13
2022-08-17T02:44:35.371Z,21.00
2022-08-17T02:47:14.092Z,21.05
2022-08-17T02:49:55.363Z,21.04
2022-08-17T02:52:55.254Z,21.22
2022-08-17T02:55:40.733Z,21.34
2022-08-17T02:58:27.330Z,21.24
2022-08-17T03:01:14.646Z,21.08
2022-08-17T03:03:43.897Z,21.01
2022-08-17T03:06:13.566Z,20.93
2022-08-17T03:08:48.532Z,21.05
2022-08-17T03:11:20.196Z,21.02
2022-08-17T03:13:51.787Z,20.89
2022-08-17T03:16:29.122Z,20.92
2022-08-17T03:21:55.187Z,20.74
2022-08-17T03:24:28.609Z,21.08
2022-08-17T03:26:57.193Z,20.98
2022-08-17T03:29:25.405Z,20.90
2022-08-17T03:31:53.602Z,20.80
2022-08-17T03:34:21.843Z,20.87
2022-08-17T03:36:50.333Z,20.87
2022-08-17T03:39:18.673Z,20.89
2022-08-17T03:41:46.855Z,21.05
2022-08-17T03:44:15.081Z,21.06
2022-08-17T03:47:01.735Z,21.01
2022-08-17T03:49:48.418Z,20.86
2022-08-17T03:52:35.043Z,20.65
2022-08-17T03:55:21.712Z,20.60
2022-08-17T03:58:04.690Z,20.78
2022-08-17T04:00:34.983Z,20.67
2022-08-17T04:03:08.007Z,20.54
2022-08-17T04:05:37.430Z,20.54
2022-08-17T04:08:05.874Z,20.74
2022-08-17T04:10:38.393Z,20.89
2022-08-17T04:13:14.214Z,20.98
2022-08-17T04:15:42.472Z,20.98
2022-08-17T04:18:11.033Z,20.89
2022-08-17T04:20:39.378Z,20.77
2022-08-17T04:23:11.973Z,20.85
2022-08-17T04:25:49.246Z,21.00
2022-08-17T04:28:19.797Z,21.12
2022-08-17T04:30:48.409Z,21.16
2022-08-17T04:33:24.292Z,21.20
2022-08-17T04:36:01.237Z,21.19
2022-08-17T04:38:33.906Z,20.93
2022-08-17T04:41:21.445Z,20.91
2022-08-17T04:43:55.141Z,21.26
2022-08-17T04:46:28.552Z,21.45
2022-08-17T04:48:57.917Z,21.52
2022-08-17T04:51:32.004Z,21.52
2022-08-17T04:54:15.970Z,21.48
2022-08-17T04:56:45.071Z,21.43
2022-08-17T04:59:18.591Z,21.49
2022-08-17T05:01:50.446Z,21.73
2022-08-17T05:04:34.073Z,21.83
2022-08-17T05:07:04.605Z,21.75
2022-08-17T05:09:32.948Z,21.63
2022-08-17T05:12:02.506Z,21.66
2022-08-17T05:14:33.103Z,21.91
2022-08-17T05:17:07.081Z,21.85
2022-08-17T05:19:39.087Z,21.95
2022-08-17T05:22:07.275Z,22.02
2022-08-17T05:24:40.807Z,21.96
2022-08-17T05:27:16.788Z,21.71
2022-08-17T05:29:47.556Z,21.63
2022-08-17T05:32:37.374Z,21.87
2022-08-17T05:35:06.076Z,21.90
2022-08-17T05:37:34.404Z,21.89
2022-08-17T05:40:02.874Z,22.02
2022-08-17T05:42:31.234Z,22.33
2022-08-17T05:44:59.541Z,22.31
2022-08-17T05:47:30.440Z,22.27
2022-08-17T05:50:01.202Z,22.31
2022-08-17T05:53:02.695Z,22.32
2022-08-17T05:56:03.869Z,22.11
2022-08-17T05:59:04.449Z,22.30
2022-08-17T06:01:52.737Z,22.48
2022-08-17T06:05:04.801Z,22.41
2022-08-17T06:08:15.606Z,22.48
2022-08-17T06:11:29.795Z,22.52
2022-08-17T06:14:32.228Z,22.77
2022-08-17T06:17:13.396Z,23.06
2022-08-17T06:20:02.956Z,22.96
2022-08-17T06:22:42.383Z,22.91
2022-08-17T06:25:32.178Z,23.08
2022-08-17T06:28:14.842Z,23.29
2022-08-17T06:31:00.811Z,23.46
2022-08-17T06:33:37.564Z,23.57
2022-08-17T06:36:22.455Z,23.74
2022-08-17T06:39:39.007Z,23.67
2022-08-17T06:43:06.180Z,23.75
2022-08-17T06:45:34.489Z,23.78
2022-08-17T06:48:11.751Z,24.01
2022-08-17T06:50:50.928Z,24.09
2022-08-17T06:54:05.602Z,24.23
2022-08-17T06:56:57.409Z,24.22
2022-08-17T06:59:54.792Z,24.41
2022-08-17T07:02:59.995Z,24.46
2022-08-17T07:05:57.533Z,24.60
2022-08-17T07:08:51.009Z,24.56
2022-08-17T07:11:59.113Z,24.74
2022-08-17T07:14:51.897Z,24.87
2022-08-17T07:17:46.868Z,24.94
2022-08-17T07:20:20.549Z,25.25
2022-08-17T07:23:19.210Z,25.44
2022-08-17T07:25:49.241Z,25.56
2022-08-17T07:28:23.189Z,25.67
2022-08-17T07:30:54.782Z,25.77
2022-08-17T07:33:31.066Z,25.84
2022-08-17T07:36:00.336Z,25.97
2022-08-17T07:38:32.009Z,26.20
2022-08-17T07:41:08.568Z,26.17
2022-08-17T07:43:39.671Z,26.26
2022-08-17T07:46:48.380Z,26.37
2022-08-17T07:49:41.201Z,26.70
2022-08-17T07:52:51.166Z,26.70
2022-08-17T07:55:35.057Z,26.90
2022-08-17T07:58:03.700Z,26.93
2022-08-17T08:00:33.704Z,26.93
2022-08-17T08:03:28.437Z,27.05
2022-08-17T08:06:02.219Z,27.09
2022-08-17T08:08:42.652Z,27.30
2022-08-17T08:11:15.593Z,27.51
2022-08-17T08:13:45.804Z,27.54
2022-08-17T08:16:27.673Z,27.67
2022-08-17T08:19:00.438Z,27.87
2022-08-17T08:21:34.301Z,27.99
2022-08-17T08:24:40.334Z,27.99
2022-08-17T08:27:36.278Z,28.24
2022-08-17T08:30:21.417Z,28.42
2022-08-17T08:32:50.191Z,28.62
2022-08-17T08:35:44.487Z,28.94
2022-08-17T08:38:34.518Z,29.29
2022-08-17T08:41:36.939Z,29.69
2022-08-17T08:44:59.982Z,29.86
2022-08-17T08:48:05.475Z,30.30
2022-08-17T08:51:20.747Z,29.79
2022-08-17T08:54:28.597Z,29.81
2022-08-17T08:57:26.691Z,29.03
2022-08-17T09:00:20.738Z,29.48
2022-08-17T09:03:14.178Z,29.93
2022-08-17T09:05:57.228Z,31.00
2022-08-17T09:09:02.022Z,31.44
2022-08-17T09:11:35.803Z,31.67
2022-08-17T09:14:47.163Z,30.62
2022-08-17T09:17:21.990Z,30.40
2022-08-17T09:20:11.237Z,30.12
2022-08-17T09:22:52.745Z,31.25
2022-08-17T09:25:32.563Z,31.28
2022-08-17T09:28:20.825Z,31.05
2022-08-17T09:31:02.533Z,30.61
2022-08-17T09:33:42.529Z,31.36
2022-08-17T09:36:28.705Z,31.72
2022-08-17T09:39:13.821Z,32.96
2022-08-17T09:42:09.197Z,32.32
2022-08-17T09:45:15.495Z,31.61
2022-08-17T09:48:14.381Z,33.12
2022-08-17T09:51:32.083Z,33.79
2022-08-17T09:54:21.062Z,33.12
2022-08-17T09:57:37.892Z,33.26
2022-08-17T10:00:16.301Z,30.80
2022-08-17T10:03:09.587Z,31.78
2022-08-17T10:05:57.077Z,32.96
2022-08-17T10:08:52.527Z,34.14
2022-08-17T10:12:17.075Z,34.14
2022-08-17T10:15:19.020Z,34.12
2022-08-17T10:18:31.871Z,34.59
2022-08-17T10:21:25.079Z,34.65
2022-08-17T10:25:01.883Z,33.70
2022-08-17T10:27:57.692Z,34.84
2022-08-17T10:30:31.551Z,33.70
2022-08-17T10:33:06.813Z,34.02
2022-08-17T10:35:51.486Z,34.04
2022-08-17T10:38:48.056Z,34.30
2022-08-17T10:41:29.119Z,34.18
2022-08-17T10:44:38.381Z,31.57
2022-08-17T10:47:15.455Z,31.81
2022-08-17T10:49:54.082Z,30.80
2022-08-17T10:52:22.833Z,31.81
2022-08-17T10:54:58.809Z,32.79
2022-08-17T10:57:27.155Z,33.35
2022-08-17T11:00:01.541Z,33.05
2022-08-17T11:02:40.928Z,34.10
2022-08-17T11:05:33.075Z,34.29
2022-08-17T11:08:24.921Z,32.24
2022-08-17T11:11:11.909Z,33.30
2022-08-17T11:13:56.068Z,32.01
2022-08-17T11:16:51.245Z,33.81
2022-08-17T11:19:47.033Z,33.31
2022-08-17T11:23:19.714Z,33.54
2022-08-17T11:25:58.962Z,32.89
2022-08-17T11:28:44.376Z,33.56
2022-08-17T11:31:40.161Z,31.97
2022-08-17T11:34:26.597Z,31.85
2022-08-17T11:37:30.119Z,32.71
2022-08-17T11:40:37.515Z,31.03
2022-08-17T11:43:56.004Z,31.70
2022-08-17T11:47:08.688Z,32.88
2022-08-17T11:50:15.571Z,33.31
2022-08-17T11:52:48.466Z,32.87
2022-08-17T11:55:39.635Z,33.92
2022-08-17T11:58:43.177Z,35.14
2022-08-17T12:01:22.197Z,35.90
2022-08-17T12:03:57.046Z,35.64
2022-08-17T12:06:32.028Z,34.99
2022-08-17T12:09:27.459Z,35.26
2022-08-17T12:12:17.560Z,34.78
2022-08-17T12:15:12.921Z,34.44
2022-08-17T12:17:42.901Z,34.52
2022-08-17T12:20:27.146Z,34.77
2022-08-17T12:23:18.506Z,34.46
2022-08-17T12:26:22.701Z,34.29
2022-08-17T12:29:01.118Z,34.95
2022-08-17T12:31:51.751Z,34.77
2022-08-17T12:34:45.418Z,34.65
2022-08-17T12:37:27.523Z,34.93
2022-08-17T12:40:27.162Z,35.10
2022-08-17T12:43:03.194Z,35.24
2022-08-17T12:45:36.009Z,34.66
2022-08-17T12:48:24.453Z,34.79
2022-08-17T12:51:05.964Z,34.63
2022-08-17T12:53:37.418Z,34.24
2022-08-17T12:56:13.376Z,34.21
2022-08-17T12:58:56.587Z,34.46
2022-08-17T13:01:26.118Z,35.13
2022-08-17T13:03:59.761Z,35.01
2022-08-17T13:06:33.434Z,35.54
2022-08-17T13:09:21.995Z,34.88
2022-08-17T13:12:05.153Z,34.17
2022-08-17T13:14:34.205Z,35.44
2022-08-17T13:17:08.540Z,36.05
2022-08-17T13:19:50.419Z,36.61
2022-08-17T13:22:24.719Z,34.95
2022-08-17T13:25:05.460Z,36.05
2022-08-17T13:27:34.107Z,36.28
2022-08-17T13:30:11.740Z,36.62
2022-08-17T13:32:46.455Z,36.28
2022-08-17T13:35:43.679Z,35.94
2022-08-17T13:38:35.936Z,36.26
2022-08-17T13:41:06.382Z,35.00
2022-08-17T13:43:45.617Z,36.02
2022-08-17T13:46:27.031Z,36.67
2022-08-17T13:49:06.051Z,37.12
2022-08-17T13:51:46.672Z,37.22
2022-08-17T13:54:37.840Z,36.16
2022-08-17T13:57:12.090Z,36.62
2022-08-17T13:59:55.109Z,36.54
2022-08-17T14:02:28.249Z,35.79
2022-08-17T14:04:58.632Z,35.63
2022-08-17T14:07:35.378Z,35.95
2022-08-17T14:10:11.066Z,34.50
2022-08-17T14:12:43.031Z,34.53
2022-08-17T14:15:15.658Z,35.08
2022-08-17T14:17:43.914Z,35.27
2022-08-17T14:20:14.330Z,35.59
2022-08-17T14:22:54.079Z,34.17
2022-08-17T14:25:29.421Z,34.15
2022-08-17T14:27:58.157Z,34.95
2022-08-17T14:30:29.969Z,34.50
2022-08-17T14:32:59.453Z,34.81
2022-08-17T14:35:29.513Z,35.51
2022-08-17T14:37:57.930Z,34.97
2022-08-17T14:40:26.277Z,35.62
2022-08-17T14:42:57.807Z,33.42
2022-08-17T14:45:32.003Z,33.96
2022-08-17T14:48:04.611Z,34.68
2022-08-17T14:50:35.407Z,34.02
2022-08-17T14:53:07.056Z,34.92
2022-08-17T14:55:36.910Z,34.65
2022-08-17T14:58:05.216Z,34.72
2022-08-17T15:00:34.369Z,32.92
2022-08-17T15:03:03.369Z,33.97
2022-08-17T15:05:36.629Z,34.33
2022-08-17T15:08:06.813Z,34.74
2022-08-17T15:10:36.044Z,35.30
2022-08-17T15:13:04.700Z,35.20
2022-08-17T15:15:32.992Z,34.64
2022-08-17T15:18:02.594Z,33.95
2022-08-17T15:20:31.091Z,33.72
2022-08-17T15:22:59.625Z,33.97
2022-08-17T15:25:31.830Z,33.80
2022-08-17T15:28:00.976Z,32.44
2022-08-17T15:30:31.190Z,33.60
2022-08-17T15:33:00.619Z,34.57
2022-08-17T15:35:32.830Z,34.96
2022-08-17T15:38:11.136Z,35.02
2022-08-17T15:40:46.394Z,34.13
2022-08-17T15:43:23.275Z,34.18
2022-08-17T15:46:04.148Z,34.76
2022-08-17T15:48:43.854Z,34.00
2022-08-17T15:51:30.000Z,32.26
2022-08-17T15:54:04.524Z,32.78
2022-08-17T15:56:47.731Z,33.36
2022-08-17T15:59:15.937Z,33.48
2022-08-17T16:03:14.238Z,34.24
2022-08-17T16:04:32.515Z,34.57
2022-08-17T16:07:00.838Z,34.54
2022-08-17T16:09:29.086Z,34.71
2022-08-17T16:11:57.299Z,34.48
2022-08-17T16:14:30.326Z,34.59
2022-08-17T16:17:05.880Z,34.70
2022-08-17T16:19:54.779Z,34.14
2022-08-17T16:22:37.474Z,34.22
2022-08-17T16:25:16.832Z,33.76
2022-08-17T16:27:48.129Z,33.15
2022-08-17T16:30:17.666Z,33.61
2022-08-17T16:32:51.531Z,33.88
2022-08-17T16:35:25.178Z,33.05
2022-08-17T16:37:57.271Z,33.10
2022-08-17T16:40:29.723Z,33.59
2022-08-17T16:43:01.675Z,33.61
2022-08-17T16:45:36.849Z,33.60
2022-08-17T16:48:05.324Z,33.50
2022-08-17T16:50:33.991Z,33.79
2022-08-17T16:53:09.064Z,33.81
2022-08-17T16:55:38.576Z,33.96
2022-08-17T16:58:08.864Z,34.27
2022-08-17T17:00:39.256Z,34.26
2022-08-17T17:03:19.506Z,34.26
2022-08-17T17:06:09.915Z,34.35
2022-08-17T17:08:48.983Z,34.38
2022-08-17T17:11:44.546Z,34.43
2022-08-17T17:14:44.877Z,33.99
2022-08-17T17:17:37.255Z,33.93
2022-08-17T17:20:32.995Z,34.19
2022-08-17T17:23:06.103Z,34.12
2022-08-17T17:25:55.704Z,34.15
2022-08-17T17:29:18.234Z,34.10
2022-08-17T17:32:35.909Z,33.83
2022-08-17T17:35:14.416Z,33.56
2022-08-17T17:37:46.373Z,33.64
2022-08-17T17:40:24.514Z,33.62
2022-08-17T17:43:14.379Z,33.47
2022-08-17T17:46:27.588Z,33.43
2022-08-17T17:48:58.381Z,33.35
2022-08-17T17:52:08.873Z,33.24
2022-08-17T17:55:13.209Z,33.11
2022-08-17T17:57:54.535Z,33.03
2022-08-17T18:00:40.915Z,32.86
2022-08-17T18:03:51.573Z,32.57
2022-08-17T18:06:55.730Z,32.42
2022-08-17T18:09:26.661Z,32.41
2022-08-17T18:12:36.935Z,32.27
2022-08-17T18:15:21.886Z,31.92
2022-08-17T18:18:33.167Z,31.85
2022-08-17T18:21:07.294Z,31.81
2022-08-17T18:23:35.515Z,31.50
2022-08-17T18:26:03.755Z,31.56
2022-08-17T18:28:34.777Z,31.54
2022-08-17T18:31:23.357Z,31.39
2022-08-17T18:34:29.448Z,31.30
2022-08-17T18:37:05.958Z,31.31
2022-08-17T18:39:36.998Z,31.19
2022-08-17T18:42:29.142Z,31.16
2022-08-17T18:44:57.583Z,31.04
2022-08-17T18:47:29.285Z,30.71
2022-08-17T18:50:41.204Z,30.70
2022-08-17T18:53:34.655Z,30.29
2022-08-17T18:56:51.566Z,30.32
2022-08-17T18:59:28.104Z,29.93
2022-08-17T19:02:43.822Z,30.11
2022-08-17T19:05:39.616Z,30.04
2022-08-17T19:08:29.448Z,29.87
2022-08-17T19:11:26.011Z,29.65
2022-08-17T19:14:12.168Z,29.55
2022-08-17T19:17:16.541Z,29.33
2022-08-17T19:19:59.892Z,29.24
2022-08-17T19:23:02.329Z,28.78
2022-08-17T19:25:38.095Z,28.91
2022-08-17T19:28:23.038Z,28.69
2022-08-17T19:30:59.420Z,28.71
2022-08-17T19:33:28.919Z,28.96
2022-08-17T19:35:57.427Z,29.00
2022-08-17T19:38:56.406Z,28.85
2022-08-17T19:41:47.823Z,28.57
2022-08-17T19:44:51.292Z,28.67
2022-08-17T19:48:04.987Z,28.92
2022-08-17T19:50:41.370Z,28.77
2022-08-17T19:54:01.766Z,28.48
2022-08-17T19:56:55.761Z,28.46
2022-08-17T19:59:37.535Z,28.41
2022-08-17T20:02:53.509Z,28.13
2022-08-17T20:06:00.876Z,28.03
2022-08-17T20:08:29.100Z,28.02
2022-08-17T20:11:28.155Z,28.09
2022-08-17T20:14:00.478Z,27.92
2022-08-17T20:16:29.369Z,27.83
2022-08-17T20:19:22.613Z,27.83
2022-08-17T20:22:00.152Z,27.90
2022-08-17T20:25:02.198Z,27.82
2022-08-17T20:27:47.328Z,27.91
2022-08-17T20:30:30.104Z,27.47
2022-08-17T20:32:59.899Z,27.17
2022-08-17T20:35:36.319Z,27.66
2022-08-17T20:38:33.560Z,27.74
2022-08-17T20:41:04.679Z,27.41
2022-08-17T20:43:35.606Z,27.55
2022-08-17T20:46:21.020Z,27.43
2022-08-17T20:49:00.652Z,27.35
2022-08-17T20:52:00.468Z,27.17
2022-08-17T20:54:42.152Z,27.39
2022-08-17T20:57:32.710Z,27.41
2022-08-17T21:00:15.596Z,27.19
2022-08-17T21:02:49.827Z,27.19
2022-08-17T21:06:12.587Z,26.82
2022-08-17T21:09:12.581Z,26.91
2022-08-17T21:12:04.515Z,27.04
2022-08-17T21:14:58.099Z,27.20
2022-08-17T21:17:59.262Z,27.21
2022-08-17T21:21:04.867Z,27.30
2022-08-17T21:24:09.969Z,27.15
2022-08-17T21:27:02.150Z,26.51
2022-08-17T21:29:34.067Z,26.50
2022-08-17T21:32:09.560Z,26.51
2022-08-17T21:35:07.547Z,26.54
2022-08-17T21:37:46.557Z,26.58
2022-08-17T21:40:18.057Z,26.73
2022-08-17T21:42:59.263Z,26.70
2022-08-17T21:45:36.516Z,26.79
2022-08-17T21:48:21.638Z,26.68
2022-08-17T21:51:29.142Z,26.75
2022-08-17T21:54:03.241Z,26.55
2022-08-17T21:56:40.421Z,26.73
2022-08-17T21:59:38.093Z,26.71
2022-08-17T22:02:27.288Z,26.31
2022-08-17T22:05:12.900Z,26.42
2022-08-17T22:07:50.694Z,26.63
2022-08-17T22:10:31.133Z,26.59
2022-08-17T22:13:17.066Z,26.64
2022-08-17T22:16:15.416Z,26.55
2022-08-17T22:18:58.095Z,26.33
2022-08-17T22:21:27.343Z,26.03
2022-08-17T22:24:59.822Z,26.10
2022-08-17T22:28:02.505Z,26.41
2022-08-17T22:34:47.594Z,26.28
2022-08-17T22:37:27.220Z,26.30
2022-08-17T22:39:59.637Z,26.37
2022-08-17T22:42:28.669Z,26.33
2022-08-17T22:44:57.075Z,26.33
2022-08-17T22:47:43.027Z,26.08
2022-08-17T22:50:28.305Z,26.01
2022-08-17T22:53:34.032Z,26.08
2022-08-17T22:56:21.537Z,25.94
2022-08-17T22:59:16.865Z,26.01
2022-08-17T23:02:15.654Z,25.94
2022-08-17T23:04:51.446Z,25.79
2022-08-17T23:07:22.868Z,25.76
2022-08-17T23:17:37.193Z,25.86
2022-08-17T23:20:09.398Z,25.82
2022-08-17T23:22:52.145Z,25.83
2022-08-17T23:25:29.880Z,25.74
2022-08-17T23:28:01.890Z,25.75
2022-08-17T23:30:34.779Z,25.71
2022-08-17T23:33:08.516Z,25.75
2022-08-17T23:35:38.913Z,25.63
2022-08-17T23:38:13.389Z,25.57
2022-08-17T23:40:41.695Z,25.61
2022-08-17T23:43:24.742Z,25.50
2022-08-17T23:45:58.011Z,25.37
2022-08-17T23:48:35.085Z,25.28
2022-08-17T23:51:14.843Z,25.44
2022-08-17T23:53:48.766Z,25.46
2022-08-17T23:56:23.319Z,25.39
2022-08-17T23:58:58.540Z,25.54
